»·PEaware :: DAL1491 KSLC-KDEN

DAL1491 :: KSLC-KDEN

FLIGHT INFORMATION

Flight Status: Arrived
Operator:
Delta Air Lines
More flights by this operator :: More flights under this callsign
Pilot: Jamie M. (16133)
Aircraft: BOEING 737-800
(B738)
More flights by this aircraft type
Origin: KSLC Salt Lake City Intl
United States
Destination: KDEN Denver Intl
United States
More flights between these airports :: More routes between these airports
Route: RUGGD1 PERTY CHE KAILE2
File this flight plan on PilotEdge
Remarks:
Altitude:
(Current/Filed)
37,000ft
Speed:
(Current/Filed)
454kts
Departed: 11-Jun-18 02:31 PM
Arrived: 11-Jun-18 03:29 PM
Distance/Time
Traveled:
339nm/0:58
Distance/Time
To Go:
Arrived

Flight Plot

Page will automatically refresh every two minutes.

Flight plan parsing failed; only flown route is shown


Map Options




Map Legend


Flown Route
Filed Route
Departure Airport
Arrival Airport
Navaid (VOR, NDB)
Fix

Horizontal Profiles

Position Reports

Time Latitude Longitude Heading Altitude Ground
Speed
11-Jun-18 13:51 40.789317 -111.985263 114 4223ft 0kts
11-Jun-18 13:52 40.789317 -111.985263 114 4223ft 0kts
11-Jun-18 13:53 40.789317 -111.985263 114 4223ft 0kts
11-Jun-18 13:54 40.789317 -111.985263 114 4223ft 0kts
11-Jun-18 13:55 40.789317 -111.985263 114 4223ft 0kts
11-Jun-18 13:56 40.789317 -111.985263 114 4223ft 0kts
11-Jun-18 13:57 40.789317 -111.985263 114 4223ft 0kts
11-Jun-18 13:58 40.789317 -111.985263 114 4223ft 0kts
11-Jun-18 13:59 40.789317 -111.985263 114 4223ft 0kts
11-Jun-18 14:00 40.789317 -111.985263 114 4223ft 0kts
11-Jun-18 14:01 40.789317 -111.985263 114 4223ft 0kts
11-Jun-18 14:02 40.789317 -111.985263 114 4223ft 0kts
11-Jun-18 14:03 40.789317 -111.985263 114 4223ft 0kts
11-Jun-18 14:04 40.789317 -111.985263 114 4223ft 0kts
11-Jun-18 14:05 40.789317 -111.985263 114 4223ft 0kts
11-Jun-18 14:06 40.789317 -111.985263 114 4223ft 0kts
11-Jun-18 14:07 40.789317 -111.985263 114 4223ft 0kts
11-Jun-18 14:08 40.789317 -111.985263 114 4223ft 0kts
11-Jun-18 14:09 40.789317 -111.985263 114 4223ft 0kts
11-Jun-18 14:10 40.789317 -111.985263 114 4223ft 0kts
11-Jun-18 14:11 40.789317 -111.985263 114 4223ft 0kts
11-Jun-18 14:12 40.789317 -111.985263 114 4223ft 0kts
11-Jun-18 14:13 40.789317 -111.985263 114 4223ft 0kts
11-Jun-18 14:14 40.789317 -111.985263 114 4223ft 0kts
11-Jun-18 14:15 40.789360 -111.985427 95 4224ft 2kts
11-Jun-18 14:16 40.789069 -111.986056 18 4224ft 2kts
11-Jun-18 14:17 40.788707 -111.986058 355 4224ft 0kts
11-Jun-18 14:18 40.788707 -111.986058 355 4223ft 0kts
11-Jun-18 14:19 40.788707 -111.986058 355 4223ft 0kts
11-Jun-18 14:20 40.788707 -111.986058 355 4223ft 0kts
11-Jun-18 14:21 40.789557 -111.986166 353 4223ft 6kts
11-Jun-18 14:22 40.791314 -111.986448 0 4223ft 8kts
11-Jun-18 14:23 40.791891 -111.981071 84 4220ft 17kts
11-Jun-18 14:24 40.792093 -111.977547 85 4222ft 2kts
11-Jun-18 14:25 40.789621 -111.976840 172 4223ft 14kts
11-Jun-18 14:26 40.783733 -111.976292 180 4227ft 20kts
11-Jun-18 14:27 40.778094 -111.975701 177 4227ft 19kts
11-Jun-18 14:28 40.774510 -111.974473 93 4227ft 0kts
11-Jun-18 14:29 40.774510 -111.974473 93 4227ft 0kts
11-Jun-18 14:30 40.775611 -111.973253 357 4227ft 4kts
11-Jun-18 14:31 40.797498 -111.975827 355 4254ft 181kts
11-Jun-18 14:32 40.853713 -111.990561 332 6132ft 243kts
11-Jun-18 14:33 40.921198 -112.035190 331 8382ft 286kts
11-Jun-18 14:34 40.991435 -112.080538 331 10210ft 317kts
11-Jun-18 14:35 41.079151 -112.081463 31 12799ft 352kts
11-Jun-18 14:36 41.120262 -111.971424 96 15409ft 372kts
11-Jun-18 14:37 41.097036 -111.835805 107 18209ft 389kts
11-Jun-18 14:38 41.070035 -111.693782 107 20816ft 408kts
11-Jun-18 14:39 41.041592 -111.545487 107 23167ft 426kts
11-Jun-18 14:40 41.011774 -111.391176 106 25410ft 441kts
11-Jun-18 14:41 40.981168 -111.233675 107 27418ft 454kts
11-Jun-18 14:42 40.949187 -111.070264 107 29234ft 467kts
11-Jun-18 14:43 40.916221 -110.903228 107 31197ft 470kts
11-Jun-18 14:44 40.884579 -110.744233 107 32998ft 469kts
11-Jun-18 14:45 40.851328 -110.578637 107 34665ft 469kts
11-Jun-18 14:46 40.817881 -110.413471 107 36292ft 464kts
11-Jun-18 14:47 40.784982 -110.252008 108 37190ft 472kts
11-Jun-18 14:48 40.749597 -110.079616 108 37164ft 502kts
11-Jun-18 14:49 40.731360 -109.895751 96 37095ft 506kts
11-Jun-18 14:50 40.718443 -109.711446 96 37094ft 506kts
11-Jun-18 14:51 40.705009 -109.526374 96 37090ft 508kts
11-Jun-18 14:52 40.691499 -109.344412 97 37093ft 507kts
11-Jun-18 14:53 40.677647 -109.161009 97 37087ft 507kts
11-Jun-18 14:54 40.663382 -108.976481 97 37086ft 507kts
11-Jun-18 14:55 40.648760 -108.791994 97 37089ft 508kts
11-Jun-18 14:56 40.633765 -108.607294 97 37110ft 508kts
11-Jun-18 14:57 40.618409 -108.422048 97 37154ft 509kts
11-Jun-18 14:58 40.603396 -108.243462 98 37146ft 509kts
11-Jun-18 14:59 40.587632 -108.058786 97 37144ft 508kts
11-Jun-18 15:00 40.571545 -107.874728 97 37134ft 508kts
11-Jun-18 15:01 40.555974 -107.699805 98 37143ft 508kts
11-Jun-18 15:02 40.539190 -107.515296 97 37144ft 508kts
11-Jun-18 15:03 40.522587 -107.335987 98 37154ft 508kts
11-Jun-18 15:04 40.511008 -107.152980 95 36519ft 505kts
11-Jun-18 15:05 40.503079 -106.999687 94 35693ft 508kts
11-Jun-18 15:06 40.492990 -106.814296 94 34711ft 511kts
11-Jun-18 15:07 40.482449 -106.627166 94 32535ft 517kts
11-Jun-18 15:08 40.471628 -106.441109 94 29579ft 507kts
11-Jun-18 15:09 40.461419 -106.270000 95 26768ft 474kts
11-Jun-18 15:10 40.451371 -106.104209 95 25001ft 456kts
11-Jun-18 15:11 40.437639 -105.942792 102 23373ft 440kts
11-Jun-18 15:12 40.413410 -105.788184 103 21789ft 427kts
11-Jun-18 15:13 40.389488 -105.637848 103 20501ft 405kts
11-Jun-18 15:14 40.367362 -105.499851 103 19634ft 377kts
11-Jun-18 15:15 40.347412 -105.367582 101 17348ft 366kts
11-Jun-18 15:16 40.330376 -105.243153 101 15999ft 351kts
11-Jun-18 15:17 40.313285 -105.119297 101 14676ft 334kts
11-Jun-18 15:18 40.297639 -105.006482 102 13514ft 298kts
11-Jun-18 15:19 40.283646 -104.907204 101 12645ft 267kts
11-Jun-18 15:20 40.270310 -104.814499 101 11514ft 250kts
11-Jun-18 15:21 40.248762 -104.728221 119 11016ft 254kts
11-Jun-18 15:22 40.191752 -104.683185 188 10315ft 241kts
11-Jun-18 15:23 40.123180 -104.693478 182 9462ft 249kts
11-Jun-18 15:24 40.057457 -104.694155 179 8496ft 224kts
11-Jun-18 15:25 40.001120 -104.694830 179 7385ft 176kts
11-Jun-18 15:26 39.956415 -104.695394 179 6496ft 161kts
11-Jun-18 15:27 39.914243 -104.696058 178 5681ft 145kts
11-Jun-18 15:28 39.878870 -104.696253 177 5294ft 51kts
11-Jun-18 15:29 39.875536 -104.694509 153 5297ft 0kts
11-Jun-18 15:30 39.875535 -104.694509 153 5297ft 0kts
11-Jun-18 15:31 39.875421 -104.694437 153 5298ft 3kts
11-Jun-18 15:32 39.875039 -104.691434 89 5311ft 16kts
11-Jun-18 15:33 39.875014 -104.686611 91 5339ft 7kts
11-Jun-18 15:34 39.874179 -104.683787 183 5354ft 14kts
11-Jun-18 15:35 39.868863 -104.683780 179 5347ft 24kts
11-Jun-18 15:36 39.862353 -104.683619 155 5327ft 17kts
11-Jun-18 15:37 39.861366 -104.678913 91 5360ft 17kts
11-Jun-18 15:38 39.862248 -104.674280 351 5385ft 4kts
11-Jun-18 15:39 39.862385 -104.674313 349 5384ft 0kts
11-Jun-18 15:40 39.862385 -104.674313 349 5384ft 0kts
11-Jun-18 15:41 39.862385 -104.674313 349 5384ft 0kts
11-Jun-18 15:42 39.862385 -104.674313 349 5384ft 0kts
11-Jun-18 15:43 39.862385 -104.674313 349 5384ft 0kts

Navigation Log

Ident Type
Flight plan parsing failed, navigation log unavailable